Michael B Meli — WDH3752 — position and weather

sailwx.info

Track history (hours):
 
Tides and Currents Weather Stations Pressure Air Temp Water Temp Dewpoint Dewpoint Depression Visibility Wind Speed Wind Dir Waves Ship Positions

Michael B Meli

Owner: Boston Harbor Cruises, Boston, MA. More information available from US FCC via Universal Licensing System and Coast Guard Vessel Documentation Center.

Last reported at 2018-Jul-16 21:55 UTC. Time now 2018-Jul-17 05:29 UTC.
Position N 42°23' W 071°03'.

; draft 2 m.

Type: Passenger vessel. MMSI: 367610530.

Date/timePositionNaut miles runAvg speedWind from/ knotsBaromVisibWave heightAir tempDewpointWater temp
2018-Jul-16 21:55N 42°23' W 071°03'1 3.1
2018-Jul-16 21:30N 42°22' W 071°03'0 0.0
2018-Jul-16 21:00N 42°22' W 071°03'4 7.8
2018-Jul-16 20:30N 42°20' W 070°58'3 4.7
2018-Jul-16 19:53N 42°18' W 070°55'1 3.2
2018-Jul-16 19:30N 42°19' W 070°56'0 0.9
2018-Jul-16 19:00N 42°20' W 070°56'3 5.5
2018-Jul-16 18:30N 42°19' W 070°59'3 4.0
2018-Jul-16 17:43N 42°18' W 070°55'1 5.6
2018-Jul-16 17:30N 42°19' W 070°56'2 4.9
2018-Jul-16 17:01N 42°19' W 070°59'0 0.0
2018-Jul-15 23:54N 42°19' W 070°59'  
2018-Jul-13 06:05N 42°23' W 071°03'0 0.0
2018-Jul-13 06:00N 42°23' W 071°03'2 3.3
2018-Jul-13 05:29N 42°21' W 071°02'611.1
2018-Jul-13 04:57N 42°19' W 070°54'612.9
2018-Jul-13 04:30N 42°18' W 070°47'17011.4
2018-Jul-12 13:32N 40°45' W 073°58'113.8
2018-Jul-12 13:28N 40°44' W 073°58'613.8
2018-Jul-12 13:00N 40°39' W 074°03'  
Track history (hours):
 
Tides and Currents Weather Stations Pressure Air Temp Water Temp Dewpoint Dewpoint Depression Visibility Wind Speed Wind Dir Waves Ship Positions

Michael B Meli

Owner: Boston Harbor Cruises, Boston, MA. More information available from US FCC via Universal Licensing System and Coast Guard Vessel Documentation Center.

Last reported at 2018-Jul-16 21:55 UTC. Time now 2018-Jul-17 05:29 UTC.
Position N 42°23' W 071°03'.

; draft 2 m.

Type: Passenger vessel. MMSI: 367610530.

Date/timePositionNaut miles runAvg speedWind from/ knotsBaromVisibWave heightAir tempDewpointWater temp
2018-Jul-16 21:55N 42°23' W 071°03'1 3.1
2018-Jul-16 21:30N 42°22' W 071°03'0 0.0
2018-Jul-16 21:00N 42°22' W 071°03'4 7.8
2018-Jul-16 20:30N 42°20' W 070°58'3 4.7
2018-Jul-16 19:53N 42°18' W 070°55'1 3.2
2018-Jul-16 19:30N 42°19' W 070°56'0 0.9
2018-Jul-16 19:00N 42°20' W 070°56'3 5.5
2018-Jul-16 18:30N 42°19' W 070°59'3 4.0
2018-Jul-16 17:43N 42°18' W 070°55'1 5.6
2018-Jul-16 17:30N 42°19' W 070°56'2 4.9
2018-Jul-16 17:01N 42°19' W 070°59'0 0.0
2018-Jul-15 23:54N 42°19' W 070°59'  
2018-Jul-13 06:05N 42°23' W 071°03'0 0.0
2018-Jul-13 06:00N 42°23' W 071°03'2 3.3
2018-Jul-13 05:29N 42°21' W 071°02'611.1
2018-Jul-13 04:57N 42°19' W 070°54'612.9
2018-Jul-13 04:30N 42°18' W 070°47'17011.4
2018-Jul-12 13:32N 40°45' W 073°58'113.8
2018-Jul-12 13:28N 40°44' W 073°58'613.8
2018-Jul-12 13:00N 40°39' W 074°03'  

Dump ship's entire track history